Time;durP1;ratioP1;P1;durP2;ratioP2;P2;SDS_P1;SDS_P2;PMS_P1;PMS_P2;Temp;Humidity;BMP_temperature;BMP_pressure;BME280_temperature;BME280_humidity;BME280_pressure;Samples;Min_cycle;Max_cycle;Signal;HPM_P1;HPM_P2
2023/12/16 00:01:42;;;;;;;0.68;0.68;;;;;;;1.57;100.00;62156.44;5008352;28;20239;-74
2023/12/16 00:04:09;;;;;;;0.52;0.52;;;;;;;1.59;100.00;62158.50;5004435;28;20223;-75
2023/12/16 00:06:35;;;;;;;0.98;0.77;;;;;;;1.53;100.00;62154.84;5006152;28;20390;-74
2023/12/16 00:09:07;;;;;;;0.50;0.50;;;;;;;1.46;100.00;62147.66;5010085;28;20254;-74
2023/12/16 00:11:34;;;;;;;0.47;0.47;;;;;;;1.37;100.00;62133.41;4995851;28;20226;-73
2023/12/16 00:14:01;;;;;;;1.30;0.70;;;;;;;1.44;100.00;62145.59;5003843;28;20222;-74
2023/12/16 00:16:28;;;;;;;0.50;0.50;;;;;;;1.47;100.00;62149.19;5006459;28;20242;-73
2023/12/16 00:18:54;;;;;;;0.57;0.57;;;;;;;1.60;100.00;62164.53;5004476;28;20300;-73
2023/12/16 00:21:21;;;;;;;0.32;0.32;;;;;;;1.60;100.00;62162.03;5005162;28;20507;-74
2023/12/16 00:23:48;;;;;;;0.40;0.40;;;;;;;1.58;100.00;62160.50;5006737;28;20420;-74
2023/12/16 00:26:17;;;;;;;0.50;0.50;;;;;;;1.63;100.00;62170.13;5001572;28;20263;-74
2023/12/16 00:28:44;;;;;;;0.70;0.70;;;;;;;1.49;100.00;62151.25;4988376;28;20227;-74
2023/12/16 00:31:11;;;;;;;0.63;0.63;;;;;;;1.56;100.00;62158.44;5006971;28;20200;-75
2023/12/16 00:33:38;;;;;;;0.70;0.70;;;;;;;1.48;100.00;62147.22;5006052;28;20231;-74
2023/12/16 00:36:05;;;;;;;0.82;0.82;;;;;;;1.37;100.00;62140.94;5005125;28;20239;-73
2023/12/16 00:38:32;;;;;;;0.43;0.43;;;;;;;1.40;100.00;62144.03;5006626;28;20251;-73
2023/12/16 00:40:59;;;;;;;0.90;0.88;;;;;;;1.41;100.00;62143.06;5004244;28;20383;-72
2023/12/16 00:43:27;;;;;;;0.90;0.90;;;;;;;1.49;100.00;62153.25;5003099;28;20552;-73
2023/12/16 00:45:54;;;;;;;0.55;0.55;;;;;;;1.59;100.00;62159.00;5004424;28;20204;-72
2023/12/16 00:48:21;;;;;;;0.80;0.80;;;;;;;1.44;100.00;62148.63;5004320;28;20215;-73
2023/12/16 00:50:47;;;;;;;0.82;0.82;;;;;;;1.45;100.00;62151.66;5003829;28;20226;-72
2023/12/16 00:53:14;;;;;;;0.50;0.50;;;;;;;1.56;100.00;62155.41;5005271;28;20543;-74
2023/12/16 00:55:41;;;;;;;0.57;0.57;;;;;;;1.64;100.00;62168.66;5004539;28;20242;-73
2023/12/16 00:58:09;;;;;;;0.65;0.65;;;;;;;1.66;100.00;62168.19;5003862;28;20257;-72
2023/12/16 01:00:37;;;;;;;0.70;0.70;;;;;;;1.71;100.00;62173.81;5005948;28;20199;-73
2023/12/16 01:03:04;;;;;;;0.60;0.60;;;;;;;1.61;100.00;62163.56;5003122;28;20335;-73
2023/12/16 01:05:32;;;;;;;0.50;0.50;;;;;;;1.48;100.00;62152.22;5004139;28;20199;-73
2023/12/16 01:07:59;;;;;;;0.55;0.55;;;;;;;1.50;100.00;62154.78;5002677;28;20219;-72
2023/12/16 01:10:26;;;;;;;0.60;0.60;;;;;;;1.48;100.00;62149.72;5000033;28;20199;-74
2023/12/16 01:12:52;;;;;;;0.65;0.65;;;;;;;1.57;100.00;62158.97;5001504;28;20590;-74
2023/12/16 01:15:19;;;;;;;0.57;0.57;;;;;;;1.61;100.00;62163.56;5004799;28;20237;-73
2023/12/16 01:17:48;;;;;;;0.80;0.80;;;;;;;1.49;100.00;62151.25;5000172;28;20283;-72
2023/12/16 01:20:15;;;;;;;0.63;0.63;;;;;;;1.45;100.00;62152.16;4990563;28;20464;-74
2023/12/16 01:22:42;;;;;;;0.43;0.43;;;;;;;1.46;100.00;62150.16;5001596;28;20400;-73
2023/12/16 01:25:10;;;;;;;0.93;0.90;;;;;;;1.49;100.00;62153.75;4992857;28;20196;-73
2023/12/16 01:27:36;;;;;;;0.70;0.70;;;;;;;1.51;100.00;62160.84;5005254;28;20269;-72
2023/12/16 01:30:05;;;;;;;0.50;0.50;;;;;;;1.60;100.00;62165.06;5004125;28;20215;-74
2023/12/16 01:32:32;;;;;;;0.50;0.50;;;;;;;1.48;100.00;62149.72;5002805;28;20412;-74
2023/12/16 01:35:00;;;;;;;0.82;0.82;;;;;;;1.44;100.00;62151.13;5005598;28;20184;-73
2023/12/16 01:37:27;;;;;;;0.55;0.55;;;;;;;1.52;100.00;62154.31;5003632;28;20239;-73
2023/12/16 01:39:54;;;;;;;0.75;0.60;;;;;;;1.45;100.00;62147.13;4992103;28;20441;-74
2023/12/16 01:42:21;;;;;;;0.65;0.65;;;;;;;1.46;100.00;62153.19;5004228;28;20320;-72
2023/12/16 01:44:48;;;;;;;0.95;0.77;;;;;;;1.50;100.00;62154.28;4998524;28;20230;-73
2023/12/16 01:47:17;;;;;;;1.13;1.13;;;;;;;1.37;100.00;62141.44;5004063;28;20409;-74
2023/12/16 01:49:44;;;;;;;0.70;0.70;;;;;;;1.35;100.00;62139.38;5005481;28;20199;-73
2023/12/16 01:52:13;;;;;;;0.73;0.63;;;;;;;1.41;100.00;62145.56;5001522;28;20199;-72
2023/12/16 01:54:40;;;;;;;0.40;0.40;;;;;;;1.45;100.00;62151.66;5004051;28;20274;-73
2023/12/16 01:57:08;;;;;;;0.20;0.20;;;;;;;1.33;100.00;62137.34;5008063;28;20227;-73
2023/12/16 01:59:34;;;;;;;0.55;0.55;;;;;;;1.25;100.00;62129.13;4996682;28;20200;-74
2023/12/16 02:02:01;;;;;;;0.32;0.32;;;;;;;1.28;100.00;62129.69;5006894;28;20230;-73
2023/12/16 02:04:28;;;;;;;0.40;0.40;;;;;;;1.34;100.00;62135.34;4992497;28;20192;-74
2023/12/16 02:06:58;;;;;;;0.30;0.30;;;;;;;1.38;100.00;62139.47;4994590;28;20199;-73
2023/12/16 02:09:26;;;;;;;0.45;0.45;;;;;;;1.42;100.00;62146.06;5004443;28;20723;-73
2023/12/16 02:11:54;;;;;;;0.35;0.35;;;;;;;1.37;100.00;62141.44;4998654;28;20543;-72
2023/12/16 02:14:21;;;;;;;0.30;0.22;;;;;;;1.39;100.00;62145.50;4993579;28;20238;-74
2023/12/16 02:16:48;;;;;;;0.57;0.57;;;;;;;1.45;100.00;62149.16;5007596;28;20227;-73
2023/12/16 02:19:14;;;;;;;0.30;0.30;;;;;;;1.14;100.00;62118.34;5001664;28;20243;-72
2023/12/16 02:21:41;;;;;;;0.50;0.50;;;;;;;1.03;100.00;62104.06;4988320;28;20266;-72
2023/12/16 02:24:10;;;;;;;0.50;0.50;;;;;;;1.11;100.00;62114.78;4989750;28;20242;-73
2023/12/16 02:26:37;;;;;;;1.30;1.20;;;;;;;1.06;100.00;62104.63;5005892;28;20446;-73
2023/12/16 02:29:03;;;;;;;0.80;0.80;;;;;;;1.01;100.00;62107.53;5006860;28;20563;-75
2023/12/16 02:31:30;;;;;;;0.38;0.38;;;;;;;0.95;100.00;62096.38;5005970;28;20223;-75
2023/12/16 02:33:57;;;;;;;0.32;0.32;;;;;;;0.87;100.00;62085.13;5007677;28;20234;-74
2023/12/16 02:36:25;;;;;;;0.28;0.28;;;;;;;0.95;100.00;62098.88;5005790;28;20231;-73
2023/12/16 02:38:52;;;;;;;0.43;0.43;;;;;;;1.02;100.00;62100.53;5007902;28;20473;-73
2023/12/16 02:41:23;;;;;;;0.45;0.45;;;;;;;1.10;100.00;62113.75;5004490;28;20261;-74
2023/12/16 02:43:50;;;;;;;0.35;0.35;;;;;;;1.08;100.00;62109.19;5008645;28;20226;-73
2023/12/16 02:46:17;;;;;;;0.35;0.35;;;;;;;0.95;100.00;62095.84;5007483;28;20200;-74
2023/12/16 02:48:44;;;;;;;0.45;0.45;;;;;;;0.95;100.00;62093.84;5006472;28;20219;-74
2023/12/16 02:51:17;;;;;;;0.28;0.28;;;;;;;0.88;100.00;62089.19;5007396;28;20220;-73
2023/12/16 02:53:44;;;;;;;0.45;0.45;;;;;;;0.99;100.00;62102.97;5002368;28;20492;-74
2023/12/16 02:56:11;;;;;;;0.50;0.50;;;;;;;1.02;100.00;62100.53;5006692;28;20262;-74
2023/12/16 02:58:40;;;;;;;0.30;0.30;;;;;;;1.02;100.00;62106.06;4991649;28;20224;-75
2023/12/16 03:01:07;;;;;;;0.20;0.20;;;;;;;1.02;100.00;62103.53;5001434;28;20203;-74
2023/12/16 03:03:34;;;;;;;0.30;0.30;;;;;;;1.03;100.00;62102.06;5007792;28;20286;-73
2023/12/16 03:06:05;;;;;;;0.20;0.20;;;;;;;1.07;100.00;62110.69;5005365;28;20203;-74
2023/12/16 03:08:32;;;;;;;0.40;0.40;;;;;;;1.16;100.00;62117.38;5006701;28;20246;-74
2023/12/16 03:10:59;;;;;;;0.20;0.20;;;;;;;1.13;100.00;62112.31;5005272;28;20541;-74
2023/12/16 03:13:25;;;;;;;0.32;0.30;;;;;;;1.21;100.00;62122.53;5005155;28;20227;-73
2023/12/16 03:15:54;;;;;;;0.40;0.40;;;;;;;1.16;100.00;62119.91;5006308;28;20199;-74
2023/12/16 03:18:21;;;;;;;0.50;0.50;;;;;;;1.08;100.00;62106.69;5003874;28;20219;-74
2023/12/16 03:20:48;;;;;;;0.57;0.52;;;;;;;1.06;100.00;62107.66;4996301;28;20255;-74
2023/12/16 03:23:15;;;;;;;0.52;0.40;;;;;;;1.03;100.00;62107.09;5002507;28;20219;-74
2023/12/16 03:25:43;;;;;;;0.30;0.30;;;;;;;1.01;100.00;62102.00;5006413;28;20270;-74
2023/12/16 03:28:09;;;;;;;0.30;0.30;;;;;;;1.12;100.00;62118.31;5002754;28;20250;-73
2023/12/16 03:30:38;;;;;;;0.50;0.40;;;;;;;1.22;100.00;62121.03;5005966;28;20387;-73
2023/12/16 03:33:06;;;;;;;0.60;0.60;;;;;;;1.25;100.00;62126.63;5005808;28;20226;-73
2023/12/16 03:35:33;;;;;;;0.70;0.70;;;;;;;1.26;100.00;62127.16;5006379;28;20301;-74
2023/12/16 03:38:00;;;;;;;0.55;0.55;;;;;;;1.37;100.00;62143.44;5004484;28;20249;-75
2023/12/16 03:40:27;;;;;;;0.60;0.60;;;;;;;1.28;100.00;62132.22;5007291;28;20219;-73
2023/12/16 03:42:54;;;;;;;0.50;0.50;;;;;;;1.23;100.00;62124.06;5007406;28;20407;-72
2023/12/16 03:45:21;;;;;;;0.65;0.60;;;;;;;1.26;100.00;62127.16;5004481;28;20211;-74
2023/12/16 03:47:48;;;;;;;0.75;0.75;;;;;;;1.24;100.00;62125.09;4986076;28;20266;-73
2023/12/16 03:50:17;;;;;;;0.70;0.70;;;;;;;1.35;100.00;62138.88;4986083;28;20204;-73
2023/12/16 03:52:43;;;;;;;1.40;1.00;;;;;;;1.33;100.00;62134.81;4986273;28;20232;-73
2023/12/16 03:55:10;;;;;;;1.02;1.02;;;;;;;1.33;100.00;62134.34;5005158;28;20205;-78
2023/12/16 03:57:37;;;;;;;1.33;1.23;;;;;;;1.36;100.00;62139.91;5004097;28;20704;-74
2023/12/16 04:00:05;;;;;;;0.77;0.77;;;;;;;1.46;100.00;62150.16;4986382;28;20223;-74
2023/12/16 04:02:32;;;;;;;1.08;1.00;;;;;;;1.38;100.00;62134.44;5001245;28;20223;-73
2023/12/16 04:04:59;;;;;;;0.73;0.73;;;;;;;1.38;100.00;62142.47;5006284;28;20206;-74
2023/12/16 04:07:27;;;;;;;0.93;0.93;;;;;;;1.45;100.00;62149.16;5005876;28;20215;-74
2023/12/16 04:09:54;;;;;;;1.10;0.82;;;;;;;1.44;100.00;62145.59;5003038;28;20239;-74
2023/12/16 04:12:21;;;;;;;0.82;0.82;;;;;;;1.48;100.00;62152.22;5003895;28;20290;-73
2023/12/16 04:14:48;;;;;;;0.95;0.95;;;;;;;1.51;100.00;62155.81;5003706;28;20435;-74
2023/12/16 04:17:14;;;;;;;0.73;0.73;;;;;;;1.47;100.00;62148.69;5004865;28;20250;-73
2023/12/16 04:19:49;;;;;;;0.70;0.70;;;;;;;1.38;100.00;62141.97;4996125;28;20282;-74
2023/12/16 04:22:16;;;;;;;1.10;1.10;;;;;;;1.29;100.00;62135.22;5006064;28;20379;-74
2023/12/16 04:24:44;;;;;;;1.00;1.00;;;;;;;1.36;100.00;62137.91;5003538;28;20200;-74
2023/12/16 04:27:11;;;;;;;1.00;1.00;;;;;;;1.38;100.00;62142.47;5005538;28;20477;-74
2023/12/16 04:29:38;;;;;;;1.10;1.10;;;;;;;1.29;100.00;62130.22;5005261;28;20211;-74
2023/12/16 04:32:05;;;;;;;1.27;1.15;;;;;;;1.30;100.00;62131.75;5003481;28;20199;-74
2023/12/16 04:34:32;;;;;;;1.10;1.10;;;;;;;1.10;100.00;62116.75;5005553;28;20266;-74
2023/12/16 04:36:59;;;;;;;1.38;1.23;;;;;;;1.14;100.00;62115.84;5004403;28;20235;-75
2023/12/16 04:39:26;;;;;;;1.10;1.10;;;;;;;1.28;100.00;62131.72;5004954;28;20530;-74
2023/12/16 04:41:54;;;;;;;1.20;1.10;;;;;;;1.15;100.00;62119.41;5003911;28;20241;-74
2023/12/16 04:44:21;;;;;;;1.05;1.05;;;;;;;1.23;100.00;62129.59;4985281;28;20195;-74
2023/12/16 04:46:48;;;;;;;1.42;1.33;;;;;;;1.25;100.00;62131.13;5001037;28;20199;-74
2023/12/16 04:49:15;;;;;;;0.85;0.85;;;;;;;1.18;100.00;62121.94;5005304;28;20364;-74
2023/12/16 04:51:42;;;;;;;1.02;0.90;;;;;;;1.24;100.00;62128.13;5004761;28;20211;-74
2023/12/16 04:54:09;;;;;;;1.50;1.40;;;;;;;1.20;100.00;62121.50;5004204;28;20566;-74
2023/12/16 04:56:36;;;;;;;1.10;1.10;;;;;;;1.26;100.00;62129.66;5003249;28;20416;-73
2023/12/16 04:59:04;;;;;;;1.13;1.13;;;;;;;1.28;100.00;62126.69;5006054;28;20278;-73
2023/12/16 05:01:31;;;;;;;0.95;0.95;;;;;;;1.24;100.00;62127.59;5001999;28;20199;-73
2023/12/16 05:03:58;;;;;;;1.10;1.10;;;;;;;1.03;100.00;62107.09;5004646;28;20278;-74
2023/12/16 05:06:25;;;;;;;1.15;1.05;;;;;;;1.13;100.00;62114.84;5004794;28;20199;-74
2023/12/16 05:08:52;;;;;;;1.00;1.00;;;;;;;1.30;100.00;62134.25;5005143;28;20247;-74
2023/12/16 05:11:19;;;;;;;0.80;0.80;;;;;;;1.31;100.00;62132.78;5001483;28;20207;-74
2023/12/16 05:13:46;;;;;;;0.70;0.68;;;;;;;1.10;100.00;62111.75;5007627;28;20441;-74
2023/12/16 05:16:19;;;;;;;1.70;1.60;;;;;;;1.07;100.00;62108.16;5002384;28;20517;-73
2023/12/16 05:18:46;;;;;;;2.75;2.55;;;;;;;1.09;100.00;62110.72;5004707;28;20229;-74
2023/12/16 05:21:13;;;;;;;0.50;0.40;;;;;;;1.14;100.00;62115.84;5004853;28;20199;-73
2023/12/16 05:23:40;;;;;;;0.43;0.43;;;;;;;1.15;100.00;62114.38;5005070;28;20247;-73
2023/12/16 05:26:07;;;;;;;0.47;0.47;;;;;;;1.18;100.00;62119.44;5003938;28;20254;-72
2023/12/16 05:28:34;;;;;;;0.35;0.35;;;;;;;1.00;100.00;62101.50;5004313;28;20247;-74
2023/12/16 05:31:01;;;;;;;0.50;0.40;;;;;;;0.92;100.00;62095.78;5001624;28;20380;-74
2023/12/16 05:33:29;;;;;;;0.75;0.50;;;;;;;0.95;100.00;62098.34;4984879;28;20574;-73
2023/12/16 05:35:56;;;;;;;0.22;0.22;;;;;;;0.94;100.00;62100.34;4985553;28;20195;-74
2023/12/16 05:38:24;;;;;;;1.10;0.43;;;;;;;0.97;100.00;62098.41;4985127;28;20425;-72
2023/12/16 05:40:52;;;;;;;0.40;0.40;;;;;;;0.99;100.00;62102.97;4993389;28;20203;-74
2023/12/16 05:43:19;;;;;;;0.40;0.40;;;;;;;1.02;100.00;62103.53;5000962;28;20291;-74
2023/12/16 05:45:46;;;;;;;0.30;0.30;;;;;;;0.91;100.00;62092.28;5004289;28;20203;-75
2023/12/16 05:48:13;;;;;;;0.40;0.40;;;;;;;1.01;100.00;62104.50;5003324;28;20245;-73
2023/12/16 05:50:41;;;;;;;0.40;0.40;;;;;;;0.97;100.00;62097.91;5003376;28;20211;-74
2023/12/16 05:53:08;;;;;;;0.20;0.20;;;;;;;0.86;100.00;62084.63;4994667;28;20225;-73
2023/12/16 05:55:35;;;;;;;0.15;0.15;;;;;;;1.01;100.00;62102.00;5003614;28;20226;-73
2023/12/16 05:58:02;;;;;;;0.88;0.88;;;;;;;0.96;100.00;62096.88;4995137;28;20235;-73
2023/12/16 06:00:29;;;;;;;0.95;0.70;;;;;;;0.91;100.00;62094.78;5000025;28;20206;-73
2023/12/16 06:02:56;;;;;;;0.52;0.52;;;;;;;0.76;100.00;62079.38;4997323;28;20467;-73
2023/12/16 06:05:23;;;;;;;0.22;0.22;;;;;;;0.83;100.00;62083.53;5001745;28;20270;-73
2023/12/16 06:07:52;;;;;;;0.20;0.20;;;;;;;0.93;100.00;62096.31;4992747;28;20228;-74
2023/12/16 06:10:18;;;;;;;0.20;0.20;;;;;;;0.96;100.00;62092.38;4989093;28;20203;-73
2023/12/16 06:12:45;;;;;;;0.40;0.40;;;;;;;0.95;100.00;62098.34;5000107;28;20397;-74
2023/12/16 06:15:12;;;;;;;0.40;0.40;;;;;;;0.78;100.00;62080.91;4994054;28;20446;-73
2023/12/16 06:17:39;;;;;;;0.45;0.45;;;;;;;0.66;100.00;62068.59;4992931;28;20239;-74
2023/12/16 06:20:07;;;;;;;0.20;0.20;;;;;;;0.69;100.00;62072.19;5003710;28;20208;-71
2023/12/16 06:22:34;;;;;;;0.20;0.20;;;;;;;0.78;100.00;62078.41;5000016;28;20282;-73
2023/12/16 06:25:03;;;;;;;0.28;0.28;;;;;;;0.68;100.00;62071.19;5003327;28;20395;-72
2023/12/16 06:27:31;;;;;;;0.25;0.25;;;;;;;0.71;100.00;62071.22;5002961;28;20314;-72
2023/12/16 06:29:58;;;;;;;0.20;0.15;;;;;;;0.60;100.00;62062.47;5003585;28;20213;-71
2023/12/16 06:32:25;;;;;;;0.28;0.28;;;;;;;0.71;100.00;62074.25;5001718;28;20226;-72
2023/12/16 06:34:52;;;;;;;0.20;0.20;;;;;;;0.72;100.00;62074.78;5003630;28;20504;-73
2023/12/16 06:37:19;;;;;;;0.47;0.45;;;;;;;0.63;100.00;62068.56;5002859;28;20246;-72
2023/12/16 06:39:45;;;;;;;0.70;0.68;;;;;;;0.61;100.00;62064.00;5003348;28;20223;-73
2023/12/16 06:42:14;;;;;;;0.80;0.80;;;;;;;0.66;100.00;62069.13;4989653;28;20199;-72
2023/12/16 06:44:40;;;;;;;0.45;0.20;;;;;;;0.63;100.00;62068.56;5003787;28;20207;-72
2023/12/16 06:47:07;;;;;;;0.40;0.30;;;;;;;0.58;100.00;62060.41;5004976;28;20231;-74
2023/12/16 06:49:34;;;;;;;0.32;0.32;;;;;;;0.66;100.00;62066.63;5005734;28;20529;-73
2023/12/16 06:52:01;;;;;;;0.40;0.40;;;;;;;0.67;100.00;62072.66;4996631;28;20200;-73
2023/12/16 06:54:28;;;;;;;0.70;0.55;;;;;;;0.70;100.00;62075.75;4999762;28;20203;-73
2023/12/16 06:56:55;;;;;;;0.20;0.20;;;;;;;0.78;100.00;62078.94;5001239;28;20436;-73
2023/12/16 06:59:23;;;;;;;0.70;0.25;;;;;;;0.78;100.00;62075.91;5000097;28;20563;-73
2023/12/16 07:01:50;;;;;;;0.20;0.20;;;;;;;0.87;100.00;62088.16;5006595;28;20203;-73
2023/12/16 07:04:17;;;;;;;0.95;0.95;;;;;;;0.70;100.00;62073.25;5005583;28;20231;-74
2023/12/16 07:06:44;;;;;;;0.90;0.90;;;;;;;0.86;100.00;62087.13;5004790;28;20209;-73
2023/12/16 07:09:11;;;;;;;0.57;0.50;;;;;;;0.94;100.00;62097.34;4989974;28;20227;-74
2023/12/16 07:11:40;;;;;;;0.30;0.30;;;;;;;0.84;100.00;62084.56;5003145;28;20199;-73
2023/12/16 07:14:08;;;;;;;0.70;0.30;;;;;;;0.79;100.00;62079.44;5004835;28;20262;-73
2023/12/16 07:16:37;;;;;;;0.30;0.30;;;;;;;0.80;100.00;62080.47;5006643;28;20223;-74
2023/12/16 07:19:04;;;;;;;0.57;0.40;;;;;;;0.89;100.00;62095.22;5006891;28;20243;-73
2023/12/16 07:21:30;;;;;;;0.57;0.57;;;;;;;0.82;100.00;62085.03;4993232;28;20623;-72
2023/12/16 07:23:57;;;;;;;0.30;0.30;;;;;;;0.95;100.00;62098.88;4990783;28;20492;-73
2023/12/16 07:26:23;;;;;;;0.30;0.30;;;;;;;0.98;100.00;62099.44;4992696;28;20211;-73
2023/12/16 07:28:50;;;;;;;0.60;0.60;;;;;;;1.09;100.00;62107.69;4992508;28;20226;-73
2023/12/16 07:31:17;;;;;;;1.42;0.55;;;;;;;1.00;100.00;62103.50;4997243;28;20203;-74
2023/12/16 07:33:45;;;;;;;0.70;0.70;;;;;;;1.06;100.00;62107.13;4986254;28;20411;-72
2023/12/16 07:36:12;;;;;;;0.70;0.70;;;;;;;1.19;100.00;62120.47;4987836;28;20199;-73
2023/12/16 07:38:39;;;;;;;0.50;0.50;;;;;;;1.13;100.00;62114.31;4990806;28;20261;-74
2023/12/16 07:41:07;;;;;;;3.55;0.50;;;;;;;1.21;100.00;62124.53;4994488;28;20200;-74
2023/12/16 07:43:34;;;;;;;2.97;0.50;;;;;;;1.27;100.00;62130.66;4991063;28;20303;-73
2023/12/16 07:46:01;;;;;;;0.52;0.52;;;;;;;1.34;100.00;62135.34;4994751;28;20234;-73
2023/12/16 07:48:29;;;;;;;0.40;0.40;;;;;;;1.27;100.00;62133.69;4996381;28;20585;-73
2023/12/16 07:50:57;;;;;;;0.40;0.40;;;;;;;1.18;100.00;62117.47;5001682;28;20200;-74
2023/12/16 07:53:24;;;;;;;0.70;0.70;;;;;;;1.19;100.00;62123.00;4987976;28;20262;-74
2023/12/16 07:55:51;;;;;;;1.00;1.00;;;;;;;1.18;100.00;62121.94;4990551;28;20204;-74
2023/12/16 07:58:18;;;;;;;0.60;0.60;;;;;;;1.28;100.00;62131.72;4996763;28;20283;-73
2023/12/16 08:00:45;;;;;;;0.70;0.70;;;;;;;1.24;100.00;62127.59;5002886;28;20195;-73
2023/12/16 08:03:12;;;;;;;0.60;0.60;;;;;;;1.15;100.00;62121.91;4991554;28;20231;-73
2023/12/16 08:05:40;;;;;;;0.80;0.80;;;;;;;1.17;100.00;62118.44;4998246;28;20204;-74
2023/12/16 08:08:08;;;;;;;0.52;0.52;;;;;;;1.29;100.00;62130.22;4989945;28;20295;-73
2023/12/16 08:10:35;;;;;;;0.50;0.50;;;;;;;1.11;100.00;62117.28;4988507;28;20215;-73
2023/12/16 08:13:05;;;;;;;0.50;0.50;;;;;;;1.19;100.00;62126.00;4998501;28;20527;-74
2023/12/16 08:15:33;;;;;;;1.73;0.38;;;;;;;1.08;100.00;62114.72;4992901;28;20224;-73
2023/12/16 08:18:00;;;;;;;0.40;0.40;;;;;;;1.03;100.00;62104.56;4988880;28;20234;-73
2023/12/16 08:20:26;;;;;;;0.50;0.50;;;;;;;1.04;100.00;62105.06;4993831;28;20210;-74
2023/12/16 08:22:53;;;;;;;0.60;0.60;;;;;;;1.23;100.00;62127.06;4992361;28;20230;-74
2023/12/16 08:25:22;;;;;;;0.40;0.40;;;;;;;1.28;100.00;62129.19;4997510;28;20209;-74
2023/12/16 08:27:49;;;;;;;0.47;0.47;;;;;;;1.26;100.00;62130.16;4993815;28;20295;-73
2023/12/16 08:30:16;;;;;;;0.90;0.47;;;;;;;1.29;100.00;62130.75;5002564;28;20388;-72
2023/12/16 08:32:43;;;;;;;0.20;0.20;;;;;;;1.38;100.00;62142.47;5001106;28;20239;-74
2023/12/16 08:35:10;;;;;;;0.47;0.47;;;;;;;1.26;100.00;62127.66;5004617;28;20195;-74
2023/12/16 08:37:38;;;;;;;0.50;0.50;;;;;;;1.27;100.00;62128.16;4987103;28;20220;-74
2023/12/16 08:40:05;;;;;;;1.88;1.02;;;;;;;1.37;100.00;62133.41;4999333;28;20223;-74
2023/12/16 08:42:34;;;;;;;1.25;1.25;;;;;;;1.40;100.00;62144.03;5004376;28;20235;-75
2023/12/16 08:45:00;;;;;;;0.70;0.70;;;;;;;1.26;100.00;62130.16;4988626;28;20218;-75
2023/12/16 08:47:27;;;;;;;0.93;0.93;;;;;;;1.46;100.00;62148.19;4996068;28;20222;-74
2023/12/16 08:49:57;;;;;;;1.00;1.00;;;;;;;1.56;100.00;62155.94;4996010;28;20207;-74
2023/12/16 08:52:24;;;;;;;0.70;0.70;;;;;;;1.63;100.00;62165.63;5004006;28;20223;-73
2023/12/16 08:54:51;;;;;;;0.50;0.50;;;;;;;1.65;100.00;62164.66;4999645;28;20282;-74
2023/12/16 08:57:18;;;;;;;1.90;1.58;;;;;;;1.50;100.00;62149.75;5000307;28;20227;-76
2023/12/16 08:59:47;;;;;;;0.88;0.85;;;;;;;1.51;100.00;62153.31;4995646;28;20238;-75
2023/12/16 09:02:13;;;;;;;0.82;0.63;;;;;;;1.59;100.00;62161.00;5005763;28;20196;-73
2023/12/16 09:04:40;;;;;;;8.45;4.53;;;;;;;1.89;100.00;62192.31;5002549;28;20206;-74
2023/12/16 09:07:07;;;;;;;3.67;2.55;;;;;;;2.26;100.00;62229.78;5002861;28;20215;-74
2023/12/16 09:09:35;;;;;;;0.70;0.70;;;;;;;2.19;100.00;62225.13;5004653;28;20495;-75
2023/12/16 09:12:02;;;;;;;1.45;1.38;;;;;;;2.10;100.00;62213.88;4995739;28;20215;-74
2023/12/16 09:14:29;;;;;;;1.00;0.98;;;;;;;1.96;100.00;62199.50;5004628;28;20211;-75
2023/12/16 09:17:01;;;;;;;0.93;0.93;;;;;;;1.92;100.00;62197.38;5003441;28;20211;-74
2023/12/16 09:19:28;;;;;;;3.05;1.73;;;;;;;1.81;100.00;62194.13;4997679;28;20222;-78
2023/12/16 09:21:57;;;;;;;14.52;4.50;;;;;;;1.61;100.00;62163.56;5004912;28;20659;-74
2023/12/16 09:24:24;;;;;;;12.18;4.05;;;;;;;1.70;100.00;62172.28;5004057;28;20199;-74
2023/12/16 09:26:51;;;;;;;3.15;1.30;;;;;;;1.84;100.00;62189.69;4999033;28;20199;-77
2023/12/16 09:29:18;;;;;;;10.80;4.05;;;;;;;1.95;100.00;62200.97;5002666;28;20223;-75
2023/12/16 09:31:45;;;;;;;1.00;1.00;;;;;;;2.20;100.00;62226.13;5003931;28;20499;-76
2023/12/16 09:34:13;;;;;;;1.60;1.50;;;;;;;2.13;100.00;62221.97;4997862;28;20235;-75
2023/12/16 09:36:40;;;;;;;2.08;1.90;;;;;;;1.79;100.00;62184.03;5006969;28;20238;-75
2023/12/16 09:39:09;;;;;;;0.85;0.85;;;;;;;1.79;100.00;62182.06;5004141;28;20235;-76
2023/12/16 09:41:42;;;;;;;0.38;0.38;;;;;;;1.70;100.00;62172.28;5004765;28;20503;-74
2023/12/16 09:44:09;;;;;;;0.63;0.63;;;;;;;1.94;100.00;62199.97;5006243;28;20230;-75
2023/12/16 09:46:36;;;;;;;0.47;0.47;;;;;;;2.14;100.00;62220.47;5004347;28;20206;-75
2023/12/16 09:49:03;;;;;;;0.75;0.75;;;;;;;2.08;100.00;62211.31;5004007;28;20254;-75
2023/12/16 09:51:31;;;;;;;0.55;0.55;;;;;;;1.95;100.00;62200.97;4987627;28;20215;-78
2023/12/16 09:53:58;;;;;;;0.57;0.57;;;;;;;1.90;100.00;62195.31;4985386;28;20310;-74
2023/12/16 09:56:25;;;;;;;0.60;0.60;;;;;;;1.95;100.00;62200.97;5002213;28;20500;-75
2023/12/16 09:58:52;;;;;;;0.45;0.45;;;;;;;2.18;100.00;62224.59;5005001;28;20325;-75
2023/12/16 10:01:19;;;;;;;0.55;0.55;;;;;;;2.32;100.00;62238.47;5004179;28;20468;-74
2023/12/16 10:03:49;;;;;;;0.45;0.45;;;;;;;2.36;100.00;62237.56;5003964;28;20390;-75
2023/12/16 10:06:16;;;;;;;0.77;0.77;;;;;;;2.04;100.00;62209.69;5006360;28;20187;-76
2023/12/16 10:08:46;;;;;;;0.43;0.43;;;;;;;1.98;100.00;62203.56;5003679;28;20273;-73
2023/12/16 10:11:13;;;;;;;0.50;0.50;;;;;;;2.17;100.00;62220.56;5004091;28;20191;-74
2023/12/16 10:13:55;;;;;;;1.75;1.42;;;;;;;1.82;100.00;62185.13;5001694;28;20227;-76
2023/12/16 10:16:22;;;;;;;0.50;0.50;;;;;;;1.88;100.00;62190.78;5004705;28;20203;-74
2023/12/16 10:18:49;;;;;;;0.35;0.35;;;;;;;1.95;100.00;62197.97;5008630;28;20245;-74
2023/12/16 10:21:21;;;;;;;0.40;0.40;;;;;;;1.86;100.00;62189.25;5009890;28;20199;-75
2023/12/16 10:23:50;;;;;;;0.80;0.80;;;;;;;1.85;100.00;62190.72;5000525;28;20624;-76
2023/12/16 10:26:17;;;;;;;0.57;0.57;;;;;;;1.76;100.00;62178.47;4987915;28;20228;-75
2023/12/16 10:28:46;;;;;;;0.57;0.57;;;;;;;2.12;100.00;62217.94;4996936;28;20222;-75
2023/12/16 10:31:13;;;;;;;0.60;0.60;;;;;;;2.30;100.00;62234.41;5005907;28;20420;-76
2023/12/16 10:33:40;;;;;;;0.90;0.50;;;;;;;2.34;100.00;62240.53;4994026;28;20532;-75
2023/12/16 10:36:10;;;;;;;0.93;0.65;;;;;;;2.46;100.00;62255.34;5002965;28;20199;-75
2023/12/16 10:38:37;;;;;;;4.68;0.40;;;;;;;2.54;100.00;62258.03;5000595;28;21267;-76
2023/12/16 10:41:06;;;;;;;1.02;0.60;;;;;;;2.64;100.00;62270.81;4996804;28;20211;-74
2023/12/16 10:43:33;;;;;;;0.70;0.70;;;;;;;2.48;100.00;62251.88;4998834;28;20227;-74
2023/12/16 10:46:03;;;;;;;0.75;0.52;;;;;;;2.72;100.00;62276.53;4996257;28;20211;-74
2023/12/16 10:48:30;;;;;;;0.50;0.50;;;;;;;2.67;100.00;62276.94;4992380;28;20216;-73
2023/12/16 10:50:57;;;;;;;0.52;0.52;;;;;;;2.79;100.00;62286.22;5001568;28;20247;-74
2023/12/16 10:53:26;;;;;;;0.60;0.60;;;;;;;2.59;100.00;62263.19;5000117;28;20228;-75
2023/12/16 10:55:54;;;;;;;0.70;0.70;;;;;;;2.68;100.00;62275.44;4990040;28;20200;-74
2023/12/16 10:58:25;;;;;;;1.15;0.75;;;;;;;2.79;100.00;62284.25;4997557;28;20244;-74
2023/12/16 11:00:52;;;;;;;0.60;0.60;;;;;;;2.97;100.00;62300.22;4997071;28;20238;-75
2023/12/16 11:03:24;;;;;;;0.55;0.50;;;;;;;2.99;100.00;62309.28;4987971;28;20260;-72
2023/12/16 11:05:52;;;;;;;1.00;1.00;;;;;;;3.05;100.00;62315.47;4990742;28;20196;-75
2023/12/16 11:08:19;;;;;;;1.90;1.80;;;;;;;3.16;100.00;62324.75;4995747;28;20854;-73
2023/12/16 11:10:46;;;;;;;1.35;1.25;;;;;;;3.03;100.00;62310.91;4998218;28;20223;-74
2023/12/16 11:13:13;;;;;;;1.13;0.88;;;;;;;2.99;100.00;62306.78;5002385;28;20233;-73
2023/12/16 11:15:42;;;;;;;1.17;1.08;;;;;;;2.78;100.00;62283.19;4997925;28;20204;-74
2023/12/16 11:18:13;;;;;;;0.50;0.50;;;;;;;3.07;100.00;62313.00;4993543;28;20409;-73
2023/12/16 11:20:42;;;;;;;0.68;0.68;;;;;;;3.15;100.00;62323.22;4992011;28;20211;-73
2023/12/16 11:23:10;;;;;;;0.80;0.80;;;;;;;3.37;100.00;62348.88;4989583;28;20224;-73
2023/12/16 11:25:37;;;;;;;1.38;1.27;;;;;;;3.31;100.00;62337.16;4992985;28;20200;-73
2023/12/16 11:28:04;;;;;;;0.90;0.90;;;;;;;3.11;100.00;62317.13;4987204;28;20284;-72
2023/12/16 11:30:32;;;;;;;0.80;0.80;;;;;;;3.26;100.00;62332.53;4987331;28;20204;-71
2023/12/16 11:33:00;;;;;;;0.90;0.90;;;;;;;3.36;100.00;62344.81;4990623;28;20606;-74
2023/12/16 11:35:47;;;;;;;0.93;0.93;;;;;;;3.58;100.00;62364.41;4995921;28;20207;-73